Time;durP1;ratioP1;P1;durP2;ratioP2;P2;SDS_P1;SDS_P2;PMS_P1;PMS_P2;Temp;Humidity;BMP_temperature;BMP_pressure;BME280_temperature;BME280_humidity;BME280_pressure;Samples;Min_cycle;Max_cycle;Signal;HPM_P1;HPM_P2
2023/09/25 00:00:34;;;;;;;;;;;16.80;67.00;;;16.95;45.51;99398.00;5026837;27;115033;-89
2023/09/25 00:03:03;;;;;;;;;;;16.80;67.20;;;16.93;45.78;99396.72;5028632;27;113687;-90
2023/09/25 00:05:30;;;;;;;;;;;16.70;67.40;;;16.90;45.73;99402.97;5025840;27;124341;-90
2023/09/25 00:07:57;;;;;;;;;;;16.70;67.50;;;16.86;45.73;99388.06;5052498;27;124690;-90
2023/09/25 00:10:24;;;;;;;;;;;16.70;67.70;;;16.83;45.64;99391.53;5060625;27;114958;-89
2023/09/25 00:12:50;;;;;;;;;;;16.60;67.70;;;16.81;45.98;99397.44;5030565;27;113396;-89
2023/09/25 00:15:16;;;;;;;;;;;14.30;65.70;;;16.81;46.04;99399.44;5028556;27;124359;-90
2023/09/25 00:17:43;;;;;;;;;;;16.60;68.10;;;16.78;46.24;99390.56;5028345;27;123961;-90
2023/09/25 00:20:12;;;;;;;;;;;16.60;68.30;;;16.76;46.18;99389.25;5028951;27;114790;-88
2023/09/25 00:22:42;;;;;;;;;;;16.60;68.40;;;16.73;46.21;99382.38;5027140;27;114520;-90
2023/09/25 00:25:10;;;;;;;;;;;16.50;68.50;;;16.72;46.02;99386.31;5014939;28;124262;-89
2023/09/25 00:27:37;;;;;;;;;;;16.50;68.70;;;16.71;46.29;99384.69;5037403;27;123109;-89
2023/09/25 00:30:06;;;;;;;;;;;16.50;68.80;;;16.69;46.14;99381.41;5028321;27;114597;-89
2023/09/25 00:32:35;;;;;;;;;;;16.50;69.00;;;16.67;46.26;99389.31;5028399;27;113768;-89
2023/09/25 00:35:06;;;;;;;;;;;16.40;69.10;;;16.65;46.35;99374.06;5060332;27;123996;-89
2023/09/25 00:37:32;;;;;;;;;;;16.40;69.30;;;16.62;46.63;99381.13;5028523;27;125148;-89
2023/09/25 00:39:59;;;;;;;;;;;16.40;69.40;;;16.60;46.63;99382.63;5026752;27;114226;-90
2023/09/25 00:42:26;;;;;;;;;;;16.40;69.60;;;16.58;46.67;99377.41;5009809;28;113434;-89
2023/09/25 00:44:52;;;;;;;;;;;16.30;69.60;;;16.55;46.71;99378.91;5011208;27;124251;-89
2023/09/25 00:47:19;;;;;;;;;;;16.30;69.80;;;16.54;46.70;99380.03;5013950;27;124374;-89
2023/09/25 00:49:46;;;;;;;;;;;16.30;70.00;;;16.52;46.79;99376.78;5028608;27;115015;-90
2023/09/25 00:52:12;;;;;;;;;;;16.30;70.20;;;16.51;46.81;99385.47;5027352;27;113985;-89
2023/09/25 00:54:39;;;;;;;;;;;16.30;70.40;;;16.49;46.91;99383.00;5017577;27;124020;-89
2023/09/25 00:57:08;;;;;;;;;;;16.30;70.60;;;16.48;46.87;99384.19;5026999;27;124564;-89
2023/09/25 00:59:35;;;;;;;;;;;16.30;70.70;;;16.47;47.14;99390.09;5071864;27;114040;-90
2023/09/25 01:02:01;;;;;;;;;;;16.20;70.90;;;16.43;47.16;99405.88;5033222;27;114388;-89
2023/09/25 01:04:30;;;;;;;;;;;16.20;71.10;;;16.37;47.33;99390.50;5023225;27;124104;-90
2023/09/25 01:06:58;;;;;;;;;;;16.10;71.30;;;16.30;47.62;99394.59;5034563;27;124094;-89
2023/09/25 01:09:24;;;;;;;;;;;16.10;71.80;;;16.25;47.95;99397.59;5032298;27;114831;-90
2023/09/25 01:11:51;;;;;;;;;;;16.00;72.30;;;16.18;47.96;99393.72;5028245;28;114518;-89
2023/09/25 01:14:17;;;;;;;;;;;16.00;72.50;;;16.14;48.34;99393.53;5021374;27;123972;-91
2023/09/25 01:16:43;;;;;;;;;;;16.00;72.70;;;16.09;48.15;99399.31;5027375;27;123999;-90
2023/09/25 01:19:09;;;;;;;;;;;16.00;72.70;;;16.08;48.14;99387.34;5063082;27;114302;-91
2023/09/25 01:21:36;;;;;;;;;;;15.90;72.80;;;16.08;48.19;99390.13;5060159;27;113810;-90
2023/09/25 01:24:03;;;;;;;;;;;15.90;72.90;;;16.09;48.13;99385.38;5027970;28;124554;-90
2023/09/25 01:26:29;;;;;;;;;;;15.90;73.10;;;16.08;48.08;99383.75;5025813;27;124037;-90
2023/09/25 01:28:55;;;;;;;;;;;15.90;73.30;;;16.07;48.36;99385.72;5027506;28;114588;-90
2023/09/25 01:31:21;;;;;;;;;;;15.90;73.40;;;16.06;48.43;99386.03;5016769;27;114127;-89
2023/09/25 01:33:50;;;;;;;;;;;15.90;73.50;;;16.04;48.55;99383.59;5034806;27;124625;-89
2023/09/25 01:36:16;;;;;;;;;;;15.80;73.60;;;16.03;48.37;99381.94;5033360;27;123537;-91
2023/09/25 01:38:43;;;;;;;;;;;15.80;73.80;;;16.02;48.42;99379.50;5026133;27;113821;-89
2023/09/25 01:41:12;;;;;;;;;;;15.80;74.00;;;15.99;48.48;99372.63;5025080;28;114856;-90
2023/09/25 01:43:38;;;;;;;;;;;15.80;74.00;;;15.95;48.71;99373.63;5026019;27;122690;-91
2023/09/25 01:46:04;;;;;;;;;;;15.70;74.30;;;15.91;48.66;99367.91;5027850;28;123807;-91
2023/09/25 01:48:31;;;;;;;;;;;15.70;74.40;;;15.89;48.79;99357.09;5027204;27;114355;-91
2023/09/25 01:50:57;;;;;;;;;;;15.70;74.60;;;15.86;48.81;99354.97;5032120;27;112917;-90
2023/09/25 01:53:23;;;;;;;;;;;15.70;74.70;;;15.84;48.95;99359.25;5029630;27;124124;-91
2023/09/25 01:55:49;;;;;;;;;;;15.60;75.00;;;15.80;48.85;99356.31;5030486;27;124601;-90
2023/09/25 01:58:16;;;;;;;;;;;15.60;75.20;;;15.78;48.91;99352.22;5030169;27;115407;-90
2023/09/25 02:00:42;;;;;;;;;;;15.60;75.30;;;15.77;49.09;99351.41;5030399;27;114743;-91
2023/09/25 02:03:08;;;;;;;;;;;15.60;75.50;;;15.77;49.12;99345.00;5032295;27;124159;-90
2023/09/25 02:05:34;;;;;;;;;;;15.60;75.70;;;15.75;49.16;99344.53;5037659;27;123852;-91
2023/09/25 02:08:03;;;;;;;;;;;15.50;75.80;;;15.74;49.31;99357.63;5032846;27;114804;-90
2023/09/25 02:10:29;;;;;;;;;;;15.50;75.90;;;15.72;49.33;99350.78;5050833;27;112937;-90
2023/09/25 02:12:56;;;;;;;;;;;15.50;76.10;;;15.71;49.24;99351.91;5032518;27;123822;-91
2023/09/25 02:15:22;;;;;;;;;;;15.50;76.30;;;15.68;49.63;99354.22;5030324;27;124115;-90
2023/09/25 02:17:48;;;;;;;;;;;15.50;76.50;;;15.66;49.65;99352.88;5035629;27;113873;-91
2023/09/25 02:20:19;;;;;;;;;;;15.40;76.60;;;15.63;49.50;99346.00;5032598;27;112749;-90
2023/09/25 02:22:48;;;;;;;;;;;15.40;76.80;;;15.62;49.75;99351.91;5028511;27;124238;-90
2023/09/25 02:25:16;;;;;;;;;;;15.40;77.00;;;15.58;49.75;99350.94;5061547;27;124384;-90
2023/09/25 02:27:42;;;;;;;;;;;15.40;77.20;;;15.53;49.88;99345.53;5020661;28;113408;-90
2023/09/25 02:30:10;;;;;;;;;;;15.30;77.20;;;15.52;49.91;99360.63;5035590;27;114131;-91
2023/09/25 02:32:37;;;;;;;;;;;15.30;77.40;;;15.47;50.00;99347.69;5029224;28;124453;-88
2023/09/25 02:35:04;;;;;;;;;;;15.30;77.50;;;15.42;50.03;99348.72;5029845;27;123842;-92
2023/09/25 02:37:31;;;;;;;;;;;15.30;77.70;;;15.39;50.19;99352.16;5024832;27;114390;-92
2023/09/25 02:39:58;;;;;;;;;;;15.20;77.70;;;15.38;50.35;99356.06;5030118;27;114380;-91
2023/09/25 02:42:24;;;;;;;;;;;15.20;77.80;;;15.38;50.27;99339.38;5031993;27;123366;-90
2023/09/25 02:44:51;;;;;;;;;;;15.20;78.00;;;15.37;50.19;99342.50;5028615;27;124081;-90
2023/09/25 02:47:18;;;;;;;;;;;15.20;78.20;;;15.36;50.33;99347.22;5029399;27;115165;-91
2023/09/25 02:49:44;;;;;;;;;;;15.10;78.40;;;15.34;50.35;99338.41;5032608;27;114265;-90
2023/09/25 02:52:10;;;;;;;;;;;15.10;78.40;;;15.35;50.34;99339.22;5025373;27;122251;-91
2023/09/25 02:54:39;;;;;;;;;;;15.10;78.50;;;15.34;50.14;99337.56;5022179;27;123231;-91
2023/09/25 02:57:05;;;;;;;;;;;15.10;78.60;;;15.33;50.20;99345.09;5028991;27;114492;-91
2023/09/25 02:59:31;;;;;;;;;;;15.10;78.50;;;15.33;50.07;99342.31;5032591;27;113720;-90
2023/09/25 03:01:58;;;;;;;;;;;15.10;78.60;;;15.32;50.05;99342.66;5033556;27;124861;-91
2023/09/25 03:04:24;;;;;;;;;;;15.20;78.70;;;15.31;50.16;99346.59;5037216;28;124147;-91
2023/09/25 03:06:50;;;;;;;;;;;15.20;78.70;;;15.30;50.14;99339.38;5030023;28;114497;-91
2023/09/25 03:09:17;;;;;;;;;;;15.00;78.50;;;15.27;49.94;99342.84;5029103;27;113924;-90
2023/09/25 03:11:45;;;;;;;;;;;15.00;78.50;;;15.25;50.19;99345.94;5027395;27;124317;-90
2023/09/25 03:14:12;;;;;;;;;;;15.00;78.50;;;15.20;50.14;99352.50;5032021;27;123974;-90
2023/09/25 03:16:41;;;;;;;;;;;15.00;78.60;;;15.16;50.18;99348.75;5014470;28;112483;-90
2023/09/25 03:19:08;;;;;;;;;;;15.00;78.60;;;15.13;50.13;99348.59;5032006;27;113786;-91
2023/09/25 03:21:34;;;;;;;;;;;14.90;78.70;;;15.13;50.30;99343.03;5028767;27;126439;-91
2023/09/25 03:24:00;;;;;;;;;;;14.90;78.80;;;15.11;50.16;99348.09;5013789;27;124329;-92
2023/09/25 03:26:30;;;;;;;;;;;14.90;78.90;;;15.09;50.20;99350.38;5026292;27;114928;-90
2023/09/25 03:28:56;;;;;;;;;;;14.90;79.00;;;15.08;50.32;99345.97;5029883;28;113784;-91
2023/09/25 03:31:22;;;;;;;;;;;14.90;79.20;;;15.07;50.36;99345.16;5013323;28;123389;-90
2023/09/25 03:33:48;;;;;;;;;;;14.80;79.20;;;15.07;50.41;99347.09;5029117;27;123698;-90
2023/09/25 03:36:15;;;;;;;;;;;14.80;79.30;;;15.05;50.29;99343.84;5028635;28;115354;-90
2023/09/25 03:38:43;;;;;;;;;;;14.80;79.30;;;15.02;50.33;99346.16;5027671;27;114565;-92
2023/09/25 03:41:09;;;;;;;;;;;14.80;79.30;;;15.00;50.31;99345.66;5059194;27;123841;-91
2023/09/25 03:43:36;;;;;;;;;;;14.80;79.30;;;14.98;50.32;99336.81;5027493;27;123657;-91
2023/09/25 03:46:04;;;;;;;;;;;14.70;79.20;;;14.96;50.20;99339.13;5029332;27;114520;-88
2023/09/25 03:48:31;;;;;;;;;;;14.70;79.20;;;14.95;50.29;99331.91;5028026;27;112746;-89
2023/09/25 03:50:57;;;;;;;;;;;14.70;79.30;;;14.94;50.45;99335.84;5028783;27;124316;-90
2023/09/25 03:53:36;;;;;;;;;;;14.70;79.40;;;14.94;50.45;99343.38;5028536;27;124068;-91
2023/09/25 03:56:02;;;;;;;;;;;14.70;79.40;;;14.91;50.15;99341.22;5032470;27;114112;-88
2023/09/25 03:58:28;;;;;;;;;;;14.70;79.50;;;14.89;50.21;99341.56;5010254;28;113003;-89
2023/09/25 04:00:55;;;;;;;;;;;14.70;79.50;;;14.88;50.33;99342.69;5018191;27;124088;-91
2023/09/25 04:03:21;;;;;;;;;;;14.60;79.40;;;14.87;50.36;99341.06;5011705;27;123668;-88
2023/09/25 04:05:47;;;;;;;;;;;14.60;79.50;;;14.86;50.29;99345.00;5031095;27;114353;-90
2023/09/25 04:08:13;;;;;;;;;;;14.60;79.60;;;14.85;50.36;99343.34;5028798;27;113575;-90
2023/09/25 04:10:40;;;;;;;;;;;14.60;79.70;;;14.85;50.36;99348.91;5010280;27;122970;-90
2023/09/25 04:13:08;;;;;;;;;;;14.60;79.70;;;14.83;50.69;99354.03;5020457;27;123960;-87
2023/09/25 04:15:35;;;;;;;;;;;14.60;79.80;;;14.82;50.41;99351.56;5030217;27;113658;-90
2023/09/25 04:18:01;;;;;;;;;;;14.60;79.90;;;14.79;50.29;99355.81;5014539;28;112336;-88
2023/09/25 04:20:31;;;;;;;;;;;14.50;79.80;;;14.76;50.51;99353.69;5019130;27;123945;-89
2023/09/25 04:22:58;;;;;;;;;;;14.50;79.90;;;14.76;50.58;99356.47;5011047;27;122064;-89
2023/09/25 04:25:24;;;;;;;;;;;14.50;79.90;;;14.75;50.46;99352.06;5007304;28;115591;-90
2023/09/25 04:27:54;;;;;;;;;;;14.50;80.00;;;14.75;50.53;99349.28;5040514;27;114435;-90
2023/09/25 04:30:24;;;;;;;;;;;14.50;80.10;;;14.72;50.56;99350.75;5009867;27;123879;-89
2023/09/25 04:32:54;;;;;;;;;;;14.50;80.20;;;14.71;50.75;99348.28;5035234;27;124302;-91
2023/09/25 04:35:21;;;;;;;;;;;14.40;80.20;;;14.69;50.77;99345.00;5029286;28;114658;-88
2023/09/25 04:37:47;;;;;;;;;;;14.40;80.20;;;14.67;50.85;99336.16;5042532;27;113714;-90
2023/09/25 04:40:30;;;;;;;;;;;14.40;80.30;;;14.66;50.92;99337.31;5080862;27;123963;-89
2023/09/25 04:42:57;;;;;;;;;;;14.40;80.40;;;14.65;50.84;99336.50;5025434;27;124438;-89
2023/09/25 04:45:24;;;;;;;;;;;14.40;80.60;;;14.64;50.84;99342.38;5029402;27;114104;-89
2023/09/25 04:47:55;;;;;;;;;;;14.40;80.70;;;14.63;50.89;99341.56;5034470;27;114126;-89
2023/09/25 04:50:21;;;;;;;;;;;14.40;80.70;;;14.62;50.97;99339.13;5013137;27;124298;-88
2023/09/25 04:52:50;;;;;;;;;;;14.40;80.80;;;14.62;50.95;99344.69;5054766;27;123469;-89
2023/09/25 04:55:17;;;;;;;;;;;14.30;80.60;;;14.59;50.78;99346.16;5038243;27;114146;-90
2023/09/25 04:57:45;;;;;;;;;;;14.40;81.50;;;14.56;50.79;99335.66;5031301;27;114650;-88
2023/09/25 05:00:17;;;;;;;;;;;14.30;80.60;;;14.56;50.72;99352.34;5038527;27;124410;-89
2023/09/25 05:02:47;;;;;;;;;;;14.30;80.70;;;14.53;50.79;99339.94;5034818;27;124643;-89
2023/09/25 05:05:16;;;;;;;;;;;14.30;80.60;;;14.53;50.80;99348.28;5044556;27;115141;-89
2023/09/25 05:07:45;;;;;;;;;;;14.30;80.70;;;14.49;50.90;99347.25;5038044;27;113674;-88
2023/09/25 05:10:14;;;;;;;;;;;14.30;80.70;;;14.48;50.67;99340.06;5026839;27;124174;-89
2023/09/25 05:12:41;;;;;;;;;;;14.20;80.70;;;14.49;51.01;99347.25;5013171;28;124154;-89
2023/09/25 05:15:07;;;;;;;;;;;14.30;80.90;;;14.49;51.07;99347.25;5029625;27;114409;-87
2023/09/25 05:17:38;;;;;;;;;;;14.20;80.90;;;14.50;51.09;99350.84;5014690;27;114467;-89
2023/09/25 05:20:10;;;;;;;;;;;14.20;81.00;;;14.47;51.04;99349.53;5057908;27;124777;-90
2023/09/25 05:22:38;;;;;;;;;;;14.20;81.00;;;14.46;51.04;99358.19;5030989;27;127254;-89
2023/09/25 05:25:09;;;;;;;;;;;14.20;81.00;;;14.43;50.99;99354.09;5051628;27;113979;-89
2023/09/25 05:27:39;;;;;;;;;;;14.20;81.10;;;14.43;51.09;99365.22;5083263;27;111828;-88
2023/09/25 05:30:10;;;;;;;;;;;14.20;81.20;;;14.42;51.06;99352.44;5053054;27;123733;-89
2023/09/25 05:32:37;;;;;;;;;;;14.20;81.30;;;14.42;51.12;99358.00;5034181;27;123401;-89
2023/09/25 05:35:04;;;;;;;;;;;14.10;81.30;;;14.43;51.16;99354.09;5025562;27;114364;-88
2023/09/25 05:37:30;;;;;;;;;;;14.10;81.40;;;14.43;51.39;99354.09;5043893;27;114412;-88
2023/09/25 05:39:57;;;;;;;;;;;14.20;81.80;;;14.38;51.42;99359.00;5045600;27;124684;-90
2023/09/25 05:42:23;;;;;;;;;;;14.10;81.70;;;14.34;51.28;99361.59;5046233;27;124020;-89
2023/09/25 05:44:50;;;;;;;;;;;14.10;81.60;;;14.30;51.16;99363.41;5044108;27;114380;-89
2023/09/25 05:47:17;;;;;;;;;;;14.10;81.40;;;14.32;50.90;99358.34;5044060;27;112814;-89
2023/09/25 05:49:43;;;;;;;;;;;14.10;81.50;;;14.31;51.23;99357.50;5039657;27;124482;-89
2023/09/25 05:52:10;;;;;;;;;;;14.10;81.70;;;14.30;51.16;99367.00;5034041;27;124476;-89
2023/09/25 05:54:36;;;;;;;;;;;14.10;81.60;;;14.32;51.23;99355.56;5041398;27;114341;-88
2023/09/25 05:57:05;;;;;;;;;;;14.10;81.60;;;14.36;51.14;99351.78;5018773;27;113479;-89
2023/09/25 05:59:36;;;;;;;;;;;14.10;81.50;;;14.40;51.17;99357.53;5066916;27;123130;-88
2023/09/25 06:02:02;;;;;;;;;;;14.10;81.60;;;14.43;51.07;99354.09;5032030;27;123934;-90
2023/09/25 06:04:29;;;;;;;;;;;14.20;81.60;;;14.49;51.01;99358.38;5032571;27;115509;-90
2023/09/25 06:06:55;;;;;;;;;;;14.20;81.70;;;14.55;51.05;99347.94;5038021;27;114748;-89
2023/09/25 06:09:22;;;;;;;;;;;14.30;81.70;;;14.65;50.85;99349.59;5017308;27;123912;-88
2023/09/25 06:11:49;;;;;;;;;;;14.30;81.50;;;14.77;50.77;99346.97;5065679;27;123268;-88
2023/09/25 06:14:15;;;;;;;;;;;14.40;81.60;;;14.88;50.61;99353.81;5015708;27;114422;-90
2023/09/25 06:16:41;;;;;;;;;;;14.50;81.50;;;15.00;50.56;99354.00;5023553;27;113827;-87
2023/09/25 06:19:08;;;;;;;;;;;14.60;81.50;;;15.10;50.30;99355.63;5013301;27;124793;-90
2023/09/25 06:21:34;;;;;;;;;;;14.70;81.50;;;15.19;49.93;99362.00;5025759;27;123265;-88
2023/09/25 06:24:01;;;;;;;;;;;14.80;81.20;;;15.23;49.85;99360.22;5018944;27;114152;-88
2023/09/25 06:26:27;;;;;;;;;;;14.90;80.90;;;15.27;49.71;99360.34;5027128;27;113761;-88
2023/09/25 06:28:54;;;;;;;;;;;14.90;80.70;;;15.34;49.80;99357.06;5038504;27;124139;-88
2023/09/25 06:31:21;;;;;;;;;;;15.00;80.70;;;15.42;49.40;99361.78;5028531;27;123968;-87
2023/09/25 06:33:48;;;;;;;;;;;15.10;80.60;;;15.48;49.25;99366.06;5039812;27;113633;-89
2023/09/25 06:36:14;;;;;;;;;;;15.10;80.40;;;15.53;49.10;99363.09;5028756;27;114576;-89
2023/09/25 06:38:40;;;;;;;;;;;15.20;80.40;;;15.60;49.47;99363.38;5029411;27;124226;-83
2023/09/25 06:41:10;;;;;;;;;;;15.20;80.60;;;15.65;49.04;99359.59;5029483;27;123851;-90
2023/09/25 06:43:40;;;;;;;;;;;15.20;80.30;;;15.64;49.00;99366.34;5032871;27;115555;-89
2023/09/25 06:46:06;;;;;;;;;;;15.20;80.20;;;15.61;49.23;99369.78;5055792;27;113729;-86
2023/09/25 06:48:33;;;;;;;;;;;15.20;80.00;;;15.67;49.25;99371.25;5044887;27;123932;-88
2023/09/25 06:50:59;;;;;;;;;;;15.30;80.20;;;15.78;48.91;99364.19;5028494;27;124242;-88
2023/09/25 06:53:28;;;;;;;;;;;15.40;80.30;;;15.87;48.92;99361.34;5042077;27;115363;-88
2023/09/25 06:55:55;;;;;;;;;;;15.40;80.10;;;15.92;48.66;99363.97;5019021;27;115303;-89
2023/09/25 06:58:21;;;;;;;;;;;15.50;80.10;;;15.98;48.60;99365.41;5017433;27;124405;-90
2023/09/25 07:00:47;;;;;;;;;;;15.50;80.00;;;16.04;48.51;99363.25;5027033;27;123859;-88
2023/09/25 07:03:14;;;;;;;;;;;15.50;79.70;;;16.09;48.59;99357.47;5031414;27;114238;-88
2023/09/25 07:05:44;;;;;;;;;;;15.60;79.80;;;16.13;48.66;99353.69;5032429;27;114394;-83
2023/09/25 07:08:13;;;;;;;;;;;15.70;79.70;;;16.16;48.15;99346.63;5028722;27;124165;-84
2023/09/25 07:10:44;;;;;;;;;;;15.70;79.40;;;16.15;48.09;99342.22;5031431;27;123635;-89
2023/09/25 07:13:10;;;;;;;;;;;15.80;79.30;;;16.21;48.12;99342.84;5058296;27;114488;-88
2023/09/25 07:15:37;;;;;;;;;;;15.80;79.20;;;16.27;47.98;99347.88;5021871;27;114291;-89
2023/09/25 07:18:03;;;;;;;;;;;15.80;79.20;;;16.39;48.22;99346.31;5053506;27;124261;-90
2023/09/25 07:20:30;;;;;;;;;;;15.90;79.50;;;16.51;47.82;99346.44;5028380;27;123980;-89
2023/09/25 07:22:57;;;;;;;;;;;16.00;79.30;;;16.59;47.53;99351.13;5059207;27;114310;-89
2023/09/25 07:25:26;;;;;;;;;;;16.00;78.80;;;16.59;47.18;99353.09;5022461;28;113770;-88
2023/09/25 07:27:52;;;;;;;;;;;16.00;78.30;;;16.62;47.33;99347.66;5027973;27;124202;-89
2023/09/25 07:30:19;;;;;;;;;;;16.10;78.60;;;16.65;47.40;99352.56;5050394;27;123853;-88
2023/09/25 07:32:48;;;;;;;;;;;16.10;78.60;;;16.65;47.36;99349.75;5020825;28;114631;-88
2023/09/25 07:35:15;;;;;;;;;;;16.20;78.60;;;16.65;47.54;99349.75;5030074;28;112993;-88
2023/09/25 07:37:42;;;;;;;;;;;16.20;78.80;;;16.70;47.77;99351.53;5029155;27;123902;-87
2023/09/25 07:40:09;;;;;;;;;;;16.20;79.00;;;16.76;47.74;99353.81;5029495;27;123905;-89
2023/09/25 07:42:36;;;;;;;;;;;16.30;79.10;;;16.78;47.50;99357.06;5053627;27;115568;-89
2023/09/25 07:45:05;;;;;;;;;;;16.30;79.00;;;16.81;47.48;99360.34;5058853;27;114727;-89
2023/09/25 07:47:38;;;;;;;;;;;16.30;78.80;;;16.82;47.34;99364.75;5065366;27;124231;-87
2023/09/25 07:50:10;;;;;;;;;;;16.30;78.80;;;16.84;47.30;99357.69;5027238;27;124096;-88
2023/09/25 07:52:42;;;;;;;;;;;16.30;78.90;;;16.89;47.59;99359.47;5026486;27;114844;-87
2023/09/25 07:55:11;;;;;;;;;;;16.40;78.90;;;16.92;47.34;99350.41;5038474;27;114346;-87
2023/09/25 07:57:43;;;;;;;;;;;16.40;78.90;;;16.98;47.21;99354.66;5031653;27;124382;-88
2023/09/25 08:00:37;;;;;;;;;;;16.40;79.50;;;17.03;47.05;99357.19;5057031;27;124399;-87
2023/09/25 08:03:06;;;;;;;;;;;16.50;78.60;;;17.05;47.21;99354.88;5040098;27;114056;-85
2023/09/25 08:05:34;;;;;;;;;;;16.50;78.60;;;17.09;47.24;99363.41;5070204;27;114114;-85
2023/09/25 08:08:00;;;;;;;;;;;16.60;78.70;;;17.15;47.24;99362.03;5027595;27;124499;-87
2023/09/25 08:10:27;;;;;;;;;;;16.70;78.70;;;17.20;47.06;99364.63;5042687;27;123746;-85
2023/09/25 08:12:56;;;;;;;;;;;16.70;78.50;;;17.26;47.11;99360.44;5049510;27;113642;-86
2023/09/25 08:15:23;;;;;;;;;;;16.70;78.40;;;17.33;46.78;99354.28;5013023;27;112658;-89
2023/09/25 08:17:49;;;;;;;;;;;16.80;78.40;;;17.39;46.72;99370.50;5029670;27;124948;-88
2023/09/25 08:20:20;;;;;;;;;;;16.80;78.10;;;17.42;46.58;99369.00;5025397;27;123965;-88
2023/09/25 08:22:48;;;;;;;;;;;16.90;78.00;;;17.44;46.45;99361.91;5033816;27;114356;-87
2023/09/25 08:25:14;;;;;;;;;;;16.90;78.00;;;17.53;46.63;99361.00;5028065;27;113858;-86
2023/09/25 08:27:41;;;;;;;;;;;17.00;78.20;;;17.62;46.37;99370.94;5029669;27;124219;-87
2023/09/25 08:30:08;;;;;;;;;;;17.10;77.90;;;17.69;46.23;99372.34;5025894;27;122997;-86
2023/09/25 08:32:35;;;;;;;;;;;17.10;77.90;;;17.76;46.17;99369.78;5027100;27;115186;-87
2023/09/25 08:35:01;;;;;;;;;;;17.20;77.80;;;17.83;46.20;99368.06;5016238;27;113986;-86
2023/09/25 08:37:28;;;;;;;;;;;17.30;77.80;;;17.90;46.09;99363.91;5026987;27;124565;-86
2023/09/25 08:39:57;;;;;;;;;;;17.30;77.50;;;17.94;45.94;99371.22;5026360;27;123931;-85
2023/09/25 08:42:25;;;;;;;;;;;17.40;77.40;;;18.00;45.92;99369.88;5027047;27;115188;-86
2023/09/25 08:44:53;;;;;;;;;;;17.50;77.40;;;18.05;45.66;99369.63;5028948;27;113947;-87
2023/09/25 08:47:22;;;;;;;;;;;17.50;77.10;;;18.08;45.70;99365.28;5023275;28;124528;-85
2023/09/25 08:49:52;;;;;;;;;;;17.50;77.10;;;18.07;45.62;99367.28;5027915;27;124562;-86
2023/09/25 08:52:20;;;;;;;;;;;17.60;76.90;;;18.14;45.65;99363.13;5024341;27;114787;-88
2023/09/25 08:54:50;;;;;;;;;;;17.60;76.90;;;18.20;45.43;99364.50;5028173;27;113870;-87
2023/09/25 08:57:17;;;;;;;;;;;17.70;76.80;;;18.24;45.35;99371.00;5065401;27;124413;-86
2023/09/25 08:59:49;;;;;;;;;;;17.70;76.50;;;18.30;45.34;99369.63;5032337;27;124798;-87
2023/09/25 09:02:15;;;;;;;;;;;17.80;76.50;;;18.40;45.25;99380.34;5038047;27;114217;-87
2023/09/25 09:04:41;;;;;;;;;;;17.90;76.50;;;18.45;45.19;99371.69;5033218;28;112985;-85
2023/09/25 09:07:12;;;;;;;;;;;18.00;76.70;;;18.51;45.15;99373.13;5032111;27;124230;-87
2023/09/25 09:09:41;;;;;;;;;;;18.00;76.30;;;18.56;44.54;99369.25;5032427;27;123983;-86
2023/09/25 09:12:08;;;;;;;;;;;18.10;75.40;;;18.57;44.33;99364.50;5031131;28;114781;-88
2023/09/25 09:14:43;;;;;;;;;;;18.10;75.20;;;18.60;44.47;99363.78;5030187;27;113837;-86
2023/09/25 09:17:11;;;;;;;;;;;18.10;75.40;;;18.64;44.25;99361.88;5029080;27;124179;-83
2023/09/25 09:19:49;;;;;;;;;;;18.20;75.10;;;18.68;44.30;99362.84;5049805;27;123616;-84
2023/09/25 09:22:17;;;;;;;;;;;18.20;74.90;;;18.68;44.15;99365.63;5029557;27;115462;-87
2023/09/25 09:24:43;;;;;;;;;;;18.20;74.70;;;18.70;43.90;99366.91;5024260;27;114958;-86
2023/09/25 09:27:11;;;;;;;;;;;18.20;74.20;;;18.74;43.94;99361.41;5033329;27;123431;-85
2023/09/25 09:29:42;;;;;;;;;;;18.30;74.10;;;18.78;43.61;99362.38;5065920;27;123625;-86
2023/09/25 09:32:10;;;;;;;;;;;18.30;74.00;;;18.83;43.29;99358.50;5075051;27;113789;-85
2023/09/25 09:34:40;;;;;;;;;;;18.40;73.30;;;18.87;43.35;99362.22;5032365;27;113015;-83
2023/09/25 09:37:08;;;;;;;;;;;18.40;73.20;;;18.89;43.20;99363.50;5029357;27;124181;-86
2023/09/25 09:39:35;;;;;;;;;;;18.50;73.00;;;18.94;43.35;99354.88;5041686;27;126017;-83
2023/09/25 09:42:07;;;;;;;;;;;18.50;73.20;;;19.03;43.05;99353.91;5034951;27;114450;-84
2023/09/25 09:44:33;;;;;;;;;;;18.60;73.00;;;19.07;42.96;99354.81;5038314;27;113875;-83
2023/09/25 09:47:07;;;;;;;;;;;18.60;72.80;;;19.09;42.37;99349.66;5028168;27;123788;-83
2023/09/25 09:49:40;;;;;;;;;;;18.60;72.00;;;19.11;42.39;99352.94;5026220;27;124598;-84
2023/09/25 09:52:06;;;;;;;;;;;18.60;71.70;;;19.15;42.57;99356.63;5024863;27;115468;-83
2023/09/25 09:54:42;;;;;;;;;;;18.60;71.90;;;19.20;42.30;99346.00;5025864;27;113690;-84
2023/09/25 09:57:09;;;;;;;;;;;18.70;71.70;;;19.24;41.68;99348.91;5054515;27;124731;-83
2023/09/25 09:59:35;;;;;;;;;;;18.70;70.70;;;19.27;41.76;99345.41;5026967;27;127098;-84
2023/09/25 10:02:03;;;;;;;;;;;18.80;70.70;;;19.29;41.59;99339.41;5030123;27;113370;-85
2023/09/25 10:04:30;;;;;;;;;;;18.90;70.10;;;19.34;41.69;99340.00;5033915;27;113718;-84
2023/09/25 10:07:04;;;;;;;;;;;18.90;69.90;;;19.36;41.23;99340.44;5062177;27;124381;-83
2023/09/25 10:09:32;;;;;;;;;;;18.90;69.40;;;19.39;41.19;99352.91;5051813;27;124469;-85
2023/09/25 10:12:01;;;;;;;;;;;18.90;69.40;;;19.43;41.28;99348.25;5013245;28;114785;-82
2023/09/25 10:14:29;;;;;;;;;;;19.00;69.70;;;19.49;41.18;99335.59;5029578;27;115414;-84
2023/09/25 10:16:59;;;;;;;;;;;19.10;69.60;;;19.53;40.47;99338.47;5032654;27;124765;-82
2023/09/25 10:19:40;;;;;;;;;;;19.10;68.40;;;19.59;40.62;99334.25;5027713;27;124427;-84
2023/09/25 10:22:30;;;;;;;;;;;18.80;68.40;;;19.70;40.79;99335.38;5029508;27;114399;-84
2023/09/25 10:25:09;;;;;;;;;;;19.30;68.80;;;19.79;40.34;99333.19;5032644;27;114299;-82
2023/09/25 10:27:36;;;;;;;;;;;19.30;68.20;;;19.88;40.47;99332.19;5029168;27;124868;-84
2023/09/25 10:30:06;;;;;;;;;;;19.40;68.40;;;19.93;39.96;99335.53;5028321;27;124343;-83
2023/09/25 10:32:35;;;;;;;;;;;19.50;68.00;;;20.01;40.11;99334.53;5029320;27;114623;-83
2023/09/25 10:35:38;;;;;;;;;;;19.50;68.20;;;20.11;40.30;99333.19;5015101;28;114109;-82
2023/09/25 10:38:13;;;;;;;;;;;19.60;68.40;;;20.23;40.57;99329.47;5032597;27;123381;-83
2023/09/25 10:40:47;;;;;;;;;;;19.70;68.70;;;20.35;40.33;99328.56;5032128;27;123916;-83
2023/09/25 10:43:17;;;;;;;;;;;19.80;69.00;;;20.42;40.39;99321.13;5032259;27;114725;-85
2023/09/25 10:45:44;;;;;;;;;;;19.90;68.70;;;20.54;40.35;99328.63;5025045;27;113460;-83
2023/09/25 10:48:12;;;;;;;;;;;20.00;68.70;;;20.65;39.91;99320.44;5034167;27;124892;-84
2023/09/25 10:50:43;;;;;;;;;;;20.10;68.30;;;20.74;39.80;99315.44;5021854;27;122106;-84
2023/09/25 10:53:13;;;;;;;;;;;20.20;68.50;;;20.83;40.01;99312.41;5067911;27;114465;-84
2023/09/25 10:55:40;;;;;;;;;;;20.30;68.60;;;20.93;39.64;99306.22;5031745;27;112274;-84
2023/09/25 10:58:12;;;;;;;;;;;20.40;67.90;;;21.04;39.59;99310.03;5062423;27;124542;-83
2023/09/25 11:00:40;;;;;;;;;;;20.40;67.90;;;21.12;39.84;99311.81;5027274;27;123168;-83
2023/09/25 11:03:07;;;;;;;;;;;20.50;68.20;;;21.25;39.65;99311.63;5046893;27;115351;-84
2023/09/25 11:05:36;;;;;;;;;;;20.70;68.20;;;21.38;39.00;99310.31;5031205;27;114868;-82
2023/09/25 11:08:04;;;;;;;;;;;20.80;67.70;;;21.50;39.42;99304.53;5059276;27;123656;-82
2023/09/25 11:10:33;;;;;;;;;;;20.90;67.60;;;21.65;39.31;99307.59;5031462;27;123977;-81
2023/09/25 11:13:00;;;;;;;;;;;21.00;67.80;;;21.78;38.86;99307.03;5020964;27;114119;-83